createdAt,value
2017-10-01T00:01:18.565Z,23.00
2017-10-01T00:03:48.359Z,18.57
2017-10-01T00:06:17.471Z,22.80
2017-10-01T00:08:46.529Z,25.10
2017-10-01T00:11:16.165Z,17.00
2017-10-01T00:13:44.774Z,17.73
2017-10-01T00:16:13.063Z,20.83
2017-10-01T00:18:41.350Z,20.83
2017-10-01T00:21:09.681Z,17.87
2017-10-01T00:23:39.327Z,19.87
2017-10-01T00:26:08.875Z,20.97
2017-10-01T00:28:37.426Z,18.40
2017-10-01T00:31:06.493Z,19.03
2017-10-01T00:33:35.966Z,19.93
2017-10-01T00:36:05.603Z,18.70
2017-10-01T00:38:34.164Z,21.53
2017-10-01T00:41:04.003Z,20.70
2017-10-01T00:43:32.297Z,22.77
2017-10-01T00:46:02.091Z,20.10
2017-10-01T00:48:31.791Z,19.93
2017-10-01T00:51:01.467Z,19.70
2017-10-01T00:53:31.262Z,22.47
2017-10-01T00:56:01.110Z,20.53
2017-10-01T00:58:29.404Z,22.57
2017-10-01T01:00:57.697Z,20.77
2017-10-01T01:03:26.028Z,22.43
2017-10-01T01:05:55.671Z,24.97
2017-10-01T01:08:24.973Z,23.40
2017-10-01T01:10:53.345Z,19.77
2017-10-01T01:13:21.636Z,23.77
2017-10-01T01:15:50.691Z,24.17
2017-10-01T01:18:20.403Z,26.77
2017-10-01T01:20:49.710Z,22.70
2017-10-01T01:23:18.003Z,30.27
2017-10-01T01:25:47.843Z,33.77
2017-10-01T01:28:16.139Z,27.00
2017-10-01T01:30:44.432Z,34.00
2017-10-01T01:33:13.522Z,27.13
2017-10-01T01:35:43.322Z,43.93
2017-10-01T01:38:11.614Z,29.60
2017-10-01T01:40:41.074Z,30.83
2017-10-01T01:43:09.759Z,29.17
2017-10-01T01:45:38.041Z,34.03
2017-10-01T01:48:07.158Z,29.03
2017-10-01T01:50:36.206Z,28.53
2017-10-01T01:53:05.262Z,33.33
2017-10-01T01:55:33.595Z,34.60
2017-10-01T01:58:03.395Z,30.90
2017-10-01T02:00:33.062Z,38.40
2017-10-01T02:03:01.654Z,28.03
2017-10-01T02:05:31.298Z,38.27
2017-10-01T02:08:00.639Z,31.83
2017-10-01T02:10:30.427Z,23.00
2017-10-01T02:12:59.854Z,31.43
2017-10-01T02:15:28.211Z,23.60
2017-10-01T02:17:57.639Z,23.27
2017-10-01T02:20:26.319Z,22.80
2017-10-01T02:22:55.038Z,31.13
2017-10-01T02:25:23.331Z,28.47
2017-10-01T02:27:51.618Z,23.43
2017-10-01T02:30:21.379Z,22.07
2017-10-01T02:32:49.933Z,23.33
2017-10-01T02:35:18.564Z,27.40
2017-10-01T02:37:47.510Z,33.10
2017-10-01T02:40:17.309Z,33.93
2017-10-01T02:42:45.664Z,28.97
2017-10-01T02:45:13.988Z,29.60
2017-10-01T02:47:43.778Z,35.80
2017-10-01T02:50:16.561Z,25.57
2017-10-01T02:52:46.202Z,33.97
2017-10-01T02:55:14.367Z,37.00
2017-10-01T02:57:42.711Z,41.20
2017-10-01T03:00:11.026Z,46.47
2017-10-01T03:02:40.815Z,39.33
2017-10-01T03:05:09.163Z,38.73
2017-10-01T03:07:37.448Z,43.03
2017-10-01T03:10:07.078Z,48.23
2017-10-01T03:12:35.699Z,40.33
2017-10-01T03:15:03.988Z,48.40
2017-10-01T03:17:33.039Z,49.70
2017-10-01T03:20:01.386Z,46.80
2017-10-01T03:22:29.678Z,53.40
2017-10-01T03:24:59.583Z,51.93
2017-10-01T03:27:29.291Z,42.07
2017-10-01T03:29:57.851Z,36.77
2017-10-01T03:32:26.143Z,37.60
2017-10-01T03:34:54.479Z,71.83
2017-10-01T03:37:22.767Z,41.63
2017-10-01T03:39:51.051Z,50.67
2017-10-01T03:42:20.820Z,48.73
2017-10-01T03:44:49.103Z,51.20
2017-10-01T03:47:17.394Z,41.90
2017-10-01T03:49:47.470Z,54.97
2017-10-01T03:52:15.761Z,53.67
2017-10-01T03:54:44.854Z,57.73
2017-10-01T03:57:13.965Z,52.13
2017-10-01T03:59:43.015Z,43.43
2017-10-01T04:02:12.808Z,56.13
2017-10-01T04:04:42.486Z,45.10
2017-10-01T04:07:11.424Z,42.17
2017-10-01T04:09:40.109Z,43.83
2017-10-01T04:12:09.580Z,39.73
2017-10-01T04:14:37.867Z,35.23
2017-10-01T04:17:06.191Z,41.00
2017-10-01T04:19:35.858Z,36.87
2017-10-01T04:22:04.019Z,27.33
2017-10-01T04:24:33.067Z,27.43
2017-10-01T04:27:02.576Z,34.00
2017-10-01T04:29:30.854Z,45.97
2017-10-01T04:31:59.146Z,34.97
2017-10-01T04:34:27.782Z,34.97
2017-10-01T04:36:56.487Z,38.73
2017-10-01T04:39:24.779Z,41.13
2017-10-01T04:41:54.838Z,37.37
2017-10-01T04:44:24.279Z,41.07
2017-10-01T04:46:53.696Z,38.40
2017-10-01T04:49:23.470Z,41.60
2017-10-01T04:51:51.632Z,39.70
2017-10-01T04:54:19.915Z,42.80
2017-10-01T04:56:48.295Z,36.20
2017-10-01T04:59:16.592Z,37.80
2017-10-01T05:01:45.644Z,36.63
2017-10-01T05:04:13.991Z,39.90
2017-10-01T05:06:42.280Z,39.33
2017-10-01T05:09:10.569Z,28.73
2017-10-01T05:11:38.931Z,33.37
2017-10-01T05:14:07.228Z,33.80
2017-10-01T05:16:35.519Z,29.77
2017-10-01T05:19:04.616Z,32.70
2017-10-01T05:21:33.667Z,39.77
2017-10-01T05:24:02.737Z,52.50
2017-10-01T05:26:31.071Z,35.90
2017-10-01T05:28:59.360Z,31.73
2017-10-01T05:31:27.652Z,26.83
2017-10-01T05:33:57.098Z,32.93
2017-10-01T05:36:26.159Z,35.90
2017-10-01T05:38:54.443Z,33.50
2017-10-01T05:41:23.554Z,33.87
2017-10-01T05:43:51.830Z,39.40
2017-10-01T05:46:21.474Z,36.23
2017-10-01T05:48:51.042Z,43.40
2017-10-01T05:51:20.342Z,36.60
2017-10-01T05:53:49.984Z,35.20
2017-10-01T05:56:18.963Z,30.23
2017-10-01T05:58:47.256Z,32.93
2017-10-01T06:01:16.894Z,36.87
2017-10-01T06:03:45.504Z,46.80
2017-10-01T06:06:14.552Z,47.37
2017-10-01T06:08:42.841Z,25.83
2017-10-01T06:11:11.762Z,29.63
2017-10-01T06:13:40.815Z,28.23
2017-10-01T06:16:09.100Z,26.90
2017-10-01T06:18:38.947Z,26.53
2017-10-01T06:21:07.231Z,34.17
2017-10-01T06:23:35.530Z,28.27
2017-10-01T06:26:04.644Z,28.93
2017-10-01T06:28:33.704Z,23.07
2017-10-01T06:31:01.995Z,31.30
2017-10-01T06:33:31.674Z,24.30
2017-10-01T06:36:01.194Z,19.53
2017-10-01T06:38:30.127Z,23.13
2017-10-01T06:40:59.258Z,23.83
2017-10-01T06:43:28.310Z,21.93
2017-10-01T06:45:57.981Z,24.13
2017-10-01T06:48:26.606Z,24.37
2017-10-01T06:50:54.900Z,18.00
2017-10-01T06:53:24.695Z,25.33
2017-10-01T06:55:53.812Z,29.33
2017-10-01T06:58:22.868Z,42.97
2017-10-01T07:00:51.155Z,22.13
2017-10-01T07:03:19.498Z,31.00
2017-10-01T07:05:48.187Z,31.77
2017-10-01T07:08:16.471Z,38.00
2017-10-01T07:10:45.947Z,47.17
2017-10-01T07:13:14.240Z,29.70
2017-10-01T07:15:42.522Z,22.47
2017-10-01T07:18:12.921Z,12.80
2017-10-01T07:20:42.802Z,15.10
2017-10-01T07:23:11.095Z,18.53
2017-10-01T07:25:40.195Z,12.67
2017-10-01T07:28:09.257Z,22.43
2017-10-01T07:30:38.310Z,31.80
2017-10-01T07:33:06.655Z,41.70
2017-10-01T07:35:34.938Z,24.43
2017-10-01T07:38:04.743Z,34.07
2017-10-01T07:40:34.433Z,41.43
2017-10-01T07:43:02.982Z,22.47
2017-10-01T07:45:31.282Z,18.70
2017-10-01T07:48:00.387Z,27.80
2017-10-01T07:50:30.034Z,21.10
2017-10-01T07:52:58.203Z,22.53
2017-10-01T07:55:28.223Z,21.90
2017-10-01T07:57:57.751Z,21.13
2017-10-01T08:00:26.318Z,15.80
2017-10-01T08:02:54.960Z,32.30
2017-10-01T08:05:24.599Z,22.87
2017-10-01T08:07:53.151Z,18.93
2017-10-01T08:10:22.394Z,27.53
2017-10-01T08:12:50.682Z,13.17
2017-10-01T08:15:18.977Z,17.53
2017-10-01T08:17:48.478Z,15.60
2017-10-01T08:20:16.762Z,19.73
2017-10-01T08:22:45.810Z,29.03
2017-10-01T08:25:15.278Z,34.60
2017-10-01T08:27:43.577Z,21.47
2017-10-01T08:30:13.375Z,18.73
2017-10-01T08:32:43.058Z,23.07
2017-10-01T08:35:11.639Z,18.33
2017-10-01T08:37:39.927Z,24.57
2017-10-01T08:40:08.278Z,25.97
2017-10-01T08:42:37.925Z,24.97
2017-10-01T08:45:06.495Z,16.70
2017-10-01T08:47:34.835Z,24.93
2017-10-01T08:50:03.895Z,23.47
2017-10-01T08:52:33.535Z,15.50
2017-10-01T08:55:02.903Z,12.73
2017-10-01T08:57:31.956Z,21.53
2017-10-01T09:00:00.246Z,13.83
2017-10-01T09:02:28.987Z,26.20
2017-10-01T09:04:57.352Z,27.87
2017-10-01T09:07:25.642Z,22.37
2017-10-01T09:09:55.106Z,12.40
2017-10-01T09:12:23.399Z,17.30
2017-10-01T09:14:51.683Z,13.37
2017-10-01T09:17:21.388Z,17.80
2017-10-01T09:19:50.315Z,16.33
2017-10-01T09:22:20.099Z,9.30
2017-10-01T09:24:49.870Z,11.37
2017-10-01T09:27:18.799Z,11.53
2017-10-01T09:29:47.846Z,11.47
2017-10-01T09:32:16.195Z,15.13
2017-10-01T09:34:45.991Z,25.70
2017-10-01T09:37:15.626Z,16.83
2017-10-01T09:39:44.591Z,6.10
2017-10-01T09:42:14.368Z,8.37
2017-10-01T09:44:42.651Z,9.90
2017-10-01T09:47:10.978Z,11.00
2017-10-01T09:49:39.652Z,10.50
2017-10-01T09:52:08.686Z,12.30
2017-10-01T09:54:37.026Z,8.87
2017-10-01T09:57:06.067Z,8.03
2017-10-01T09:59:35.487Z,11.40
2017-10-01T10:02:03.824Z,12.50
2017-10-01T10:04:33.238Z,12.33
2017-10-01T10:07:02.937Z,13.07
2017-10-01T10:09:32.626Z,9.03
2017-10-01T10:12:02.265Z,11.57
2017-10-01T10:14:31.806Z,14.50
2017-10-01T10:17:01.364Z,9.67
2017-10-01T10:19:29.914Z,7.70
2017-10-01T10:21:58.999Z,8.23
2017-10-01T10:24:28.098Z,11.10
2017-10-01T10:26:57.139Z,11.70
2017-10-01T10:29:25.463Z,20.10
2017-10-01T10:31:54.560Z,12.83
2017-10-01T10:34:22.845Z,12.70
2017-10-01T10:36:51.191Z,17.53
2017-10-01T10:39:20.855Z,12.17
2017-10-01T10:41:49.406Z,11.57
2017-10-01T10:44:19.071Z,12.83
2017-10-01T10:46:48.057Z,8.83
2017-10-01T10:49:16.331Z,10.60
2017-10-01T10:51:45.379Z,6.07
2017-10-01T10:54:13.703Z,10.10
2017-10-01T10:56:41.979Z,7.97
2017-10-01T10:59:10.267Z,14.33
2017-10-01T11:01:39.716Z,12.63
2017-10-01T11:04:08.010Z,11.53
2017-10-01T11:06:36.286Z,5.60
2017-10-01T11:09:04.684Z,9.83
2017-10-01T11:11:34.475Z,6.60
2017-10-01T11:14:04.134Z,12.97
2017-10-01T11:16:33.059Z,6.93
2017-10-01T11:19:02.847Z,9.47
2017-10-01T11:22:06.511Z,6.60
2017-10-01T11:24:34.685Z,11.80
2017-10-01T11:27:03.726Z,6.93
2017-10-01T11:29:32.084Z,7.10
2017-10-01T11:32:01.131Z,7.83
2017-10-01T11:34:29.406Z,7.70
2017-10-01T11:36:57.758Z,7.60
2017-10-01T11:39:26.034Z,15.30
2017-10-01T11:41:55.688Z,6.63
2017-10-01T11:44:23.894Z,10.20
2017-10-01T11:46:52.170Z,8.97
2017-10-01T11:49:20.448Z,5.93
2017-10-01T11:51:50.315Z,6.97
2017-10-01T11:54:18.991Z,5.50
2017-10-01T11:56:47.291Z,7.87
2017-10-01T11:59:16.776Z,6.57
2017-10-01T12:01:45.071Z,11.83
2017-10-01T12:04:13.348Z,5.90
2017-10-01T12:06:41.667Z,7.40
2017-10-01T12:09:11.771Z,7.60
2017-10-01T12:11:40.052Z,8.90
2017-10-01T12:14:09.151Z,4.87
2017-10-01T12:16:37.828Z,13.80
2017-10-01T12:19:07.643Z,9.90
2017-10-01T12:21:35.982Z,8.20
2017-10-01T12:24:04.267Z,10.80
2017-10-01T12:26:33.903Z,11.33
2017-10-01T12:29:02.118Z,12.10
2017-10-01T12:31:30.880Z,9.57
2017-10-01T12:34:05.099Z,14.20
2017-10-01T12:36:34.182Z,11.40
2017-10-01T12:39:02.507Z,10.17
2017-10-01T12:41:30.800Z,8.47
2017-10-01T12:43:59.082Z,8.13
2017-10-01T12:46:27.435Z,8.80
2017-10-01T12:48:55.719Z,11.83
2017-10-01T12:51:24.930Z,22.40
2017-10-01T12:53:54.639Z,14.93
2017-10-01T12:56:23.561Z,16.87
2017-10-01T12:58:52.986Z,11.93
2017-10-01T13:01:27.026Z,13.10
2017-10-01T13:03:55.335Z,14.77
2017-10-01T13:06:24.413Z,8.90
2017-10-01T13:08:54.154Z,11.40
2017-10-01T13:11:22.451Z,12.53
2017-10-01T13:13:50.730Z,6.50
2017-10-01T13:16:20.200Z,10.17
2017-10-01T13:18:48.495Z,47.67
2017-10-01T13:21:16.774Z,16.90
2017-10-01T13:23:45.115Z,16.27
2017-10-01T13:26:14.159Z,10.40
2017-10-01T13:28:43.943Z,9.00
2017-10-01T13:31:13.411Z,10.83
2017-10-01T13:33:41.697Z,13.90
2017-10-01T13:39:11.334Z,8.87
2017-10-01T13:41:41.136Z,4.77
2017-10-01T13:44:10.171Z,6.40
2017-10-01T13:46:39.261Z,3.87
2017-10-01T13:49:07.538Z,4.10
2017-10-01T13:51:37.174Z,3.67
2017-10-01T13:54:05.792Z,3.33
2017-10-01T13:56:34.082Z,5.13
2017-10-01T13:59:02.360Z,6.63
2017-10-01T14:01:31.103Z,3.73
2017-10-01T14:04:00.511Z,4.40
2017-10-01T14:06:28.822Z,4.33
2017-10-01T14:08:58.530Z,3.93
2017-10-01T14:11:26.735Z,4.37
2017-10-01T14:13:55.412Z,9.80
2017-10-01T14:16:23.726Z,2.20
2017-10-01T14:18:53.520Z,4.70
2017-10-01T14:21:22.862Z,7.00
2017-10-01T14:23:51.219Z,3.27
2017-10-01T14:26:19.504Z,5.60
2017-10-01T14:28:47.803Z,5.40
2017-10-01T14:31:22.693Z,2.17
2017-10-01T14:33:51.372Z,8.13
2017-10-01T14:36:19.658Z,3.50
2017-10-01T14:38:48.737Z,4.77
2017-10-01T14:41:17.788Z,2.97
2017-10-01T14:43:46.860Z,3.23
2017-10-01T14:46:15.192Z,4.47
2017-10-01T14:48:43.475Z,6.73
2017-10-01T14:51:12.899Z,5.63
2017-10-01T14:53:41.235Z,2.50
2017-10-01T14:56:09.514Z,2.17
2017-10-01T14:58:39.138Z,7.20
2017-10-01T15:01:07.747Z,3.13
2017-10-01T15:03:37.168Z,8.07
2017-10-01T15:06:06.992Z,6.27
2017-10-01T15:08:35.311Z,4.00
2017-10-01T15:11:03.587Z,4.30
2017-10-01T15:13:31.916Z,5.07
2017-10-01T15:16:00.231Z,6.43
2017-10-01T15:18:29.274Z,5.83
2017-10-01T15:20:57.595Z,5.70
2017-10-01T15:23:26.310Z,4.53
2017-10-01T15:25:54.587Z,4.00
2017-10-01T15:28:24.498Z,4.03
2017-10-01T15:30:53.951Z,3.47
2017-10-01T15:33:22.645Z,5.80
2017-10-01T15:35:50.956Z,2.63
2017-10-01T15:38:19.300Z,5.73
2017-10-01T15:40:47.584Z,4.37
2017-10-01T15:43:16.663Z,6.00
2017-10-01T15:45:44.970Z,2.60
2017-10-01T15:48:13.266Z,3.63
2017-10-01T15:50:41.579Z,4.87
2017-10-01T15:53:11.051Z,1.80
2017-10-01T15:55:39.331Z,3.90
2017-10-01T15:58:08.423Z,4.57
2017-10-01T16:00:37.123Z,6.40
2017-10-01T16:03:06.166Z,9.10
2017-10-01T16:05:34.488Z,3.77
2017-10-01T16:08:03.565Z,8.30
2017-10-01T16:10:32.988Z,7.07
2017-10-01T16:13:02.434Z,6.90
2017-10-01T16:15:30.768Z,4.57
2017-10-01T16:18:00.043Z,3.80
2017-10-01T16:20:29.708Z,5.70
2017-10-01T16:22:58.282Z,3.13
2017-10-01T16:25:26.559Z,6.30
2017-10-01T16:27:54.875Z,7.50
2017-10-01T16:30:23.150Z,4.20
2017-10-01T16:32:51.433Z,5.87
2017-10-01T16:35:19.776Z,8.67
2017-10-01T16:37:48.090Z,5.47
2017-10-01T16:40:17.596Z,4.97
2017-10-01T16:42:45.946Z,6.90
2017-10-01T16:45:15.372Z,6.20
2017-10-01T16:47:43.659Z,4.27
2017-10-01T16:50:12.058Z,5.13
2017-10-01T16:52:41.798Z,12.13
2017-10-01T16:55:10.724Z,3.93
2017-10-01T16:57:39.058Z,6.80
2017-10-01T17:00:08.119Z,8.03
2017-10-01T17:02:37.920Z,6.87
2017-10-01T17:05:06.250Z,8.00
2017-10-01T17:07:34.531Z,7.03
2017-10-01T17:10:02.806Z,5.37
2017-10-01T17:12:31.523Z,9.30
2017-10-01T17:15:00.583Z,9.00
2017-10-01T17:17:28.858Z,6.80
2017-10-01T17:19:57.947Z,7.80
2017-10-01T17:22:27.369Z,7.50
2017-10-01T17:24:55.656Z,6.10
2017-10-01T17:27:23.982Z,7.13
2017-10-01T17:29:52.272Z,8.33
2017-10-01T17:32:20.551Z,12.60
2017-10-01T17:34:50.020Z,13.43
2017-10-01T17:37:19.646Z,6.63
2017-10-01T17:39:48.573Z,8.50
2017-10-01T17:42:16.893Z,18.07
2017-10-01T17:44:45.939Z,13.93
2017-10-01T17:47:14.224Z,20.80
2017-10-01T17:49:42.550Z,17.77
2017-10-01T17:52:10.836Z,16.27
2017-10-01T17:54:40.258Z,10.73
2017-10-01T17:57:09.383Z,14.53
2017-10-01T17:59:37.680Z,30.33
2017-10-01T18:02:06.743Z,9.83
2017-10-01T18:04:35.083Z,9.87
2017-10-01T18:07:03.358Z,10.20
2017-10-01T18:09:31.643Z,8.13
2017-10-01T18:11:59.966Z,8.33
2017-10-01T18:14:28.251Z,11.60
2017-10-01T18:16:56.532Z,5.90
2017-10-01T18:19:26.384Z,8.13
2017-10-01T18:21:54.672Z,8.63
2017-10-01T18:24:23.719Z,8.87
2017-10-01T18:26:52.047Z,8.40
2017-10-01T18:29:21.091Z,9.00
2017-10-01T18:31:50.528Z,9.90
2017-10-01T18:34:18.876Z,6.20
2017-10-01T18:36:47.935Z,7.80
2017-10-01T18:39:16.219Z,9.73
2017-10-01T18:41:46.638Z,7.00
2017-10-01T18:44:15.678Z,6.33
2017-10-01T18:46:44.724Z,12.83
2017-10-01T18:49:13.059Z,14.40
2017-10-01T18:51:41.340Z,8.03
2017-10-01T18:54:09.627Z,11.60
2017-10-01T18:56:38.354Z,11.10
2017-10-01T18:59:07.783Z,17.63
2017-10-01T19:01:36.069Z,11.47
2017-10-01T19:04:04.410Z,15.53
2017-10-01T19:06:32.703Z,14.67
2017-10-01T19:09:01.777Z,14.03
2017-10-01T19:11:30.107Z,17.00
2017-10-01T19:13:58.399Z,15.20
2017-10-01T19:16:28.189Z,12.47
2017-10-01T19:18:56.522Z,16.77
2017-10-01T19:21:24.807Z,15.57
2017-10-01T19:23:53.092Z,16.47
2017-10-01T19:26:21.455Z,10.67
2017-10-01T19:28:49.738Z,14.73
2017-10-01T19:31:18.795Z,18.70
2017-10-01T19:33:47.127Z,12.03
2017-10-01T19:36:15.415Z,13.30
2017-10-01T19:38:43.746Z,13.00
2017-10-01T19:41:12.110Z,10.03
2017-10-01T19:43:40.400Z,8.23
2017-10-01T19:46:10.194Z,13.30
2017-10-01T19:48:38.539Z,13.13
2017-10-01T19:51:06.822Z,11.70
2017-10-01T19:53:36.458Z,9.07
2017-10-01T19:56:05.427Z,12.70
2017-10-01T19:58:34.115Z,9.00
2017-10-01T20:01:02.428Z,11.80
2017-10-01T20:03:30.796Z,10.83
2017-10-01T20:05:59.079Z,11.53
2017-10-01T20:08:28.718Z,9.43
2017-10-01T20:10:56.918Z,10.17
2017-10-01T20:13:25.977Z,14.57
2017-10-01T20:15:55.758Z,12.53
2017-10-01T20:18:24.103Z,12.37
2017-10-01T20:20:53.523Z,9.40
2017-10-01T20:23:21.799Z,9.30
2017-10-01T20:25:51.279Z,10.87
2017-10-01T20:28:20.910Z,5.20
2017-10-01T20:30:49.466Z,8.80
2017-10-01T20:33:19.138Z,26.43
2017-10-01T20:35:47.703Z,11.33
2017-10-01T20:38:15.979Z,10.10
2017-10-01T20:40:45.821Z,9.33
2017-10-01T20:43:14.100Z,7.60
2017-10-01T20:45:43.727Z,7.77
2017-10-01T20:48:12.324Z,6.90
2017-10-01T20:50:40.607Z,8.57
2017-10-01T20:53:08.886Z,4.60
2017-10-01T20:55:37.215Z,9.30
2017-10-01T20:58:05.491Z,4.90
2017-10-01T21:00:33.780Z,8.43
2017-10-01T21:03:02.098Z,9.27
2017-10-01T21:05:31.887Z,11.70
2017-10-01T21:08:00.167Z,10.10
2017-10-01T21:10:29.842Z,9.07
2017-10-01T21:12:58.018Z,13.93
2017-10-01T21:15:26.698Z,11.60
2017-10-01T21:17:55.800Z,13.43
2017-10-01T21:20:24.084Z,9.60
2017-10-01T21:22:52.396Z,10.00
2017-10-01T21:25:20.732Z,9.20
2017-10-01T21:27:49.799Z,4.80
2017-10-01T21:30:18.075Z,7.20
2017-10-01T21:32:47.186Z,9.57
2017-10-01T21:35:16.605Z,13.37
2017-10-01T21:37:45.660Z,11.87
2017-10-01T21:40:15.138Z,11.20
2017-10-01T21:42:43.431Z,13.77
2017-10-01T21:45:12.455Z,10.80
2017-10-01T21:47:40.839Z,12.40
2017-10-01T21:50:09.127Z,13.60
2017-10-01T21:52:38.173Z,10.67
2017-10-01T21:55:06.501Z,14.30
2017-10-01T21:57:35.183Z,14.20
2017-10-01T22:00:04.826Z,9.40
2017-10-01T22:02:33.047Z,8.87
2017-10-01T22:05:02.088Z,13.97
2017-10-01T22:07:30.375Z,10.40
2017-10-01T22:09:59.887Z,11.23
2017-10-01T22:12:28.175Z,14.10
2017-10-01T22:14:56.468Z,11.13
2017-10-01T22:17:24.799Z,12.83
2017-10-01T22:19:53.078Z,9.20
2017-10-01T22:22:21.356Z,9.63
2017-10-01T22:24:49.695Z,10.70
2017-10-01T22:27:19.136Z,9.37
2017-10-01T22:29:47.814Z,12.47
2017-10-01T22:32:16.139Z,14.30
2017-10-01T22:34:45.936Z,10.83
2017-10-01T22:37:14.224Z,12.67
2017-10-01T22:39:43.335Z,12.80
2017-10-01T22:42:11.731Z,13.60
2017-10-01T22:44:41.571Z,16.10
2017-10-01T22:47:10.698Z,12.53
2017-10-01T22:49:39.708Z,12.10
2017-10-01T22:52:07.994Z,22.40
2017-10-01T22:54:36.334Z,13.80
2017-10-01T22:57:06.130Z,16.83
2017-10-01T22:59:34.425Z,16.97
2017-10-01T23:02:02.777Z,18.07
2017-10-01T23:04:32.422Z,17.47
2017-10-01T23:07:01.353Z,13.73
2017-10-01T23:09:29.679Z,11.97
2017-10-01T23:11:58.734Z,12.53
2017-10-01T23:14:27.784Z,11.43
2017-10-01T23:16:56.117Z,5.63
2017-10-01T23:19:25.171Z,19.00
2017-10-01T23:21:53.452Z,9.90
2017-10-01T23:24:21.795Z,8.67
2017-10-01T23:26:50.076Z,9.90
2017-10-01T23:29:19.510Z,8.97
2017-10-01T23:31:47.843Z,12.13
2017-10-01T23:34:16.899Z,12.67
2017-10-01T23:36:45.968Z,9.93
2017-10-01T23:39:14.296Z,12.53
2017-10-01T23:41:42.570Z,7.63
2017-10-01T23:44:10.856Z,10.90
2017-10-01T23:46:39.182Z,11.60
2017-10-01T23:49:08.977Z,9.30
2017-10-01T23:51:37.259Z,9.83
2017-10-01T23:54:05.595Z,14.07
2017-10-01T23:56:33.878Z,11.80
2017-10-01T23:59:02.963Z,16.40
